^^
Datos históricos de la estación: Murcia-Puente Tocinos
Diario Informe para Mayo 17, 2019 Unidades:  Ambas    Ingés   Métrico
Diario Semanal Mensual Anual
  Máxima: Mínima: Promedio:
Temperatura: 58.5 °F /  14.7 °C 48 °F /  8.9 °C 52.3 °F /  11.3 °C
Punto de rocio: 46 °F /  7.8 °C 37.2 °F /  2.9 °C 39.4 °F /  4.1 °C
Humedad: 85.6% 47% 62%
Velocidad viento: 9.7mph /  15.6km/h - 5mph /  8.1km/h
Racha viento: 21mph /  33.8km/h - -
Viento- - SO
Presión: 30.1 in /  1017.8 hPa 30 in /  1014.4 hPa -
Precipitación: 0 in /  0.0 mm    
 
 
Tabla de datos para Mayo 17, 2019
Hora Temperatura Punto de rocio Presión Viento Velocidad viento Racha viento Humedad Intensidad lluvia(por hora) Nubes
00:04 50.4 °F /  10.2 °C 46 °F /  7.8 °C 30in /  1016.4hPa OSO 5.2mph /  8.4km/h 8mph /  12.9km/h 85.6% 0in /  0.0mm
00:09 50.2 °F /  10.1 °C 45.9 °F /  7.7 °C 30in /  1016.4hPa OSO 4.9mph /  7.9km/h 7mph /  11.3km/h 85% 0in /  0.0mm
00:14 50.2 °F /  10.1 °C 45.9 °F /  7.7 °C 30in /  1016.4hPa OSO 4.7mph /  7.6km/h 6mph /  9.7km/h 85% 0in /  0.0mm
00:19 50.2 °F /  10.1 °C 45.7 °F /  7.6 °C 30in /  1016.4hPa SSO 4.1mph /  6.6km/h 6.9mph /  11.1km/h 84.6% 0in /  0.0mm
00:24 50 °F /  10 °C 45.3 °F /  7.4 °C 30in /  1016.3hPa SO 3.6mph /  5.8km/h 7mph /  11.3km/h 83.7% 0in /  0.0mm
00:29 49.8 °F /  9.9 °C 44.8 °F /  7.1 °C 30in /  1016.3hPa SO 4mph /  6.4km/h 7mph /  11.3km/h 82.7% 0in /  0.0mm
00:34 49.8 °F /  9.9 °C 44.4 °F /  6.9 °C 30in /  1016.3hPa SSO 4.3mph /  6.9km/h 8.1mph /  13km/h 81.7% 0in /  0.0mm
00:39 49.8 °F /  9.9 °C 44.2 °F /  6.8 °C 30in /  1016.2hPa SSO 4.5mph /  7.3km/h 8mph /  12.9km/h 80.9% 0in /  0.0mm
00:44 49.8 °F /  9.9 °C 43.9 °F /  6.6 °C 30in /  1016.2hPa SO 4.7mph /  7.6km/h 7mph /  11.3km/h 80% 0in /  0.0mm
00:49 50 °F /  10 °C 43.7 °F /  6.5 °C 30in /  1016.2hPa SO 4.5mph /  7.2km/h 9.2mph /  14.8km/h 79.2% 0in /  0.0mm
00:54 50.2 °F /  10.1 °C 43.7 °F /  6.5 °C 30in /  1016.2hPa SO 4.3mph /  6.9km/h 9mph /  14.5km/h 78.3% 0in /  0.0mm
00:59 50.2 °F /  10.1 °C 43.5 °F /  6.4 °C 30in /  1016.2hPa SO 5mph /  8km/h 8.1mph /  13km/h 78% 0in /  0.0mm
01:04 50.2 °F /  10.1 °C 43.3 °F /  6.3 °C 30in /  1016.2hPa SO 5.4mph /  8.7km/h 8mph /  12.9km/h 77.4% 0in /  0.0mm
01:09 50.2 °F /  10.1 °C 43.2 °F /  6.2 °C 30in /  1016.0hPa OSO 5mph /  8km/h 7mph /  11.3km/h 77% 0in /  0.0mm
01:14 50.2 °F /  10.1 °C 43.2 °F /  6.2 °C 30in /  1016.0hPa SO 4.7mph /  7.6km/h 6mph /  9.7km/h 77% 0in /  0.0mm
01:19 50 °F /  10 °C 43 °F /  6.1 °C 30in /  1016.0hPa SO 3.4mph /  5.4km/h 5.4mph /  8.7km/h 77% 0in /  0.0mm
01:24 49.8 °F /  9.9 °C 43 °F /  6.1 °C 30in /  1016.0hPa SO 2.4mph /  3.9km/h 6.2mph /  10km/h 77% 0in /  0.0mm
01:29 49.8 °F /  9.9 °C 42.8 °F /  6 °C 30in /  1016.0hPa SO 3.5mph /  5.6km/h 6.9mph /  11.1km/h 76.9% 0in /  0.0mm
01:34 49.6 °F /  9.8 °C 42.4 °F /  5.8 °C 30in /  1016.0hPa SO 3.6mph /  5.8km/h 7mph /  11.3km/h 76.2% 0in /  0.0mm
01:39 49.6 °F /  9.8 °C 42.4 °F /  5.8 °C 30in /  1015.8hPa SO 3.8mph /  6.1km/h 7mph /  11.3km/h 76% 0in /  0.0mm
01:44 49.6 °F /  9.8 °C 42.4 °F /  5.8 °C 30in /  1015.8hPa SO 4mph /  6.5km/h 6.9mph /  11.1km/h 76% 0in /  0.0mm
01:49 49.5 °F /  9.7 °C 41.9 °F /  5.5 °C 30in /  1015.8hPa SO 4.2mph /  6.7km/h 7mph /  11.3km/h 75.2% 0in /  0.0mm
01:54 49.5 °F /  9.7 °C 41.9 °F /  5.5 °C 30in /  1015.8hPa SO 4.3mph /  6.9km/h 7mph /  11.3km/h 75% 0in /  0.0mm
01:59 49.6 °F /  9.8 °C 41.9 °F /  5.5 °C 30in /  1015.8hPa SO 4.3mph /  6.9km/h 6mph /  9.7km/h 74.5% 0in /  0.0mm
02:04 49.6 °F /  9.8 °C 41.7 °F /  5.4 °C 30in /  1015.8hPa SO 4.3mph /  6.9km/h 6mph /  9.7km/h 74% 0in /  0.0mm
02:09 49.6 °F /  9.8 °C 41.7 °F /  5.4 °C 30in /  1015.7hPa SO 3.9mph /  6.3km/h 6.2mph /  10km/h 74% 0in /  0.0mm
02:14 49.6 °F /  9.8 °C 41.4 °F /  5.2 °C 30in /  1015.7hPa SSO 3.6mph /  5.8km/h 8.5mph /  13.7km/h 73.3% 0in /  0.0mm
02:19 49.6 °F /  9.8 °C 41.4 °F /  5.2 °C 30in /  1015.7hPa SSO 4.5mph /  7.2km/h 9mph /  14.5km/h 73% 0in /  0.0mm
02:24 49.5 °F /  9.7 °C 41.2 °F /  5.1 °C 30in /  1015.7hPa SSO 5.2mph /  8.4km/h 7.4mph /  11.9km/h 73% 0in /  0.0mm
02:29 49.5 °F /  9.7 °C 41.2 °F /  5.1 °C 30in /  1015.7hPa SSO 4.9mph /  7.9km/h 7.4mph /  11.9km/h 73% 0in /  0.0mm
02:34 49.3 °F /  9.6 °C 41 °F /  5 °C 30in /  1015.7hPa SSO 4.7mph /  7.6km/h 8.1mph /  13km/h 73% 0in /  0.0mm
02:39 49.1 °F /  9.5 °C 40.8 °F /  4.9 °C 30in /  1015.6hPa SSO 5mph /  8km/h 8.5mph /  13.7km/h 73% 0in /  0.0mm
02:44 49.1 °F /  9.5 °C 40.8 °F /  4.9 °C 30in /  1015.6hPa SSO 5.2mph /  8.4km/h 9mph /  14.5km/h 73% 0in /  0.0mm
02:49 49.3 °F /  9.6 °C 41 °F /  5 °C 30in /  1015.6hPa SO 5.2mph /  8.4km/h 8.1mph /  13km/h 73% 0in /  0.0mm
02:54 49.3 °F /  9.6 °C 40.8 °F /  4.9 °C 30in /  1015.6hPa SSO 5.2mph /  8.4km/h 8mph /  12.9km/h 72.4% 0in /  0.0mm
02:59 49.3 °F /  9.6 °C 40.6 °F /  4.8 °C 30in /  1015.6hPa SO 4.8mph /  7.8km/h 8.5mph /  13.7km/h 72% 0in /  0.0mm
03:04 49.1 °F /  9.5 °C 40.5 °F /  4.7 °C 30in /  1015.7hPa SO 4.7mph /  7.6km/h 9mph /  14.5km/h 72% 0in /  0.0mm
03:09 49.1 °F /  9.5 °C 40.5 °F /  4.7 °C 30in /  1015.7hPa SO 5mph /  8km/h 9.2mph /  14.8km/h 72% 0in /  0.0mm
03:14 49.3 °F /  9.6 °C 40.6 °F /  4.8 °C 30in /  1015.7hPa SO 5.2mph /  8.4km/h 9mph /  14.5km/h 72% 0in /  0.0mm
03:19 49.1 °F /  9.5 °C 40.5 °F /  4.7 °C 30in /  1015.7hPa SO 5.3mph /  8.5km/h 9.2mph /  14.8km/h 71.8% 0in /  0.0mm
03:24 49.1 °F /  9.5 °C 40.3 °F /  4.6 °C 30in /  1015.7hPa SSO 5.4mph /  8.7km/h 9.2mph /  14.8km/h 71.5% 0in /  0.0mm
03:29 48.9 °F /  9.4 °C 40.3 °F /  4.6 °C 30in /  1015.7hPa SSO 5.4mph /  8.7km/h 9mph /  14.5km/h 72% 0in /  0.0mm
03:34 48.7 °F /  9.3 °C 40.1 °F /  4.5 °C 30in /  1015.7hPa SSO 5.4mph /  8.7km/h 9.7mph /  15.6km/h 72% 0in /  0.0mm
03:39 48.7 °F /  9.3 °C 39.9 °F /  4.4 °C 30in /  1015.6hPa SSO 5.4mph /  8.7km/h 10mph /  16.1km/h 72% 0in /  0.0mm
03:44 48.6 °F /  9.2 °C 39.9 °F /  4.4 °C 30in /  1015.6hPa SSO 5.4mph /  8.7km/h 9mph /  14.5km/h 72% 0in /  0.0mm
03:49 48.4 °F /  9.1 °C 39.9 °F /  4.4 °C 30in /  1015.6hPa SSO 5.4mph /  8.7km/h 8.7mph /  14km/h 72.4% 0in /  0.0mm
03:54 48 °F /  8.9 °C 39.9 °F /  4.4 °C 30in /  1015.5hPa Sur 5.4mph /  8.7km/h 9.2mph /  14.8km/h 73% 0in /  0.0mm
03:59 48 °F /  8.9 °C 39.7 °F /  4.3 °C 30in /  1015.5hPa Sur 5.9mph /  9.5km/h 9.2mph /  14.8km/h 73% 0in /  0.0mm
04:04 48 °F /  8.9 °C 39.9 °F /  4.4 °C 30in /  1015.5hPa Sur 6.2mph /  10km/h 10.2mph /  16.4km/h 73% 0in /  0.0mm
04:09 48 °F /  8.9 °C 39.6 °F /  4.2 °C 30in /  1015.5hPa Sur 6.3mph /  10.2km/h 12.7mph /  20.4km/h 72.4% 0in /  0.0mm
04:14 48.2 °F /  9 °C 39.6 °F /  4.2 °C 30in /  1015.5hPa Sur 6.4mph /  10.3km/h 13mph /  20.9km/h 72% 0in /  0.0mm
04:19 48.2 °F /  9 °C 39.6 °F /  4.2 °C 30in /  1015.5hPa SSO 6.4mph /  10.3km/h 10mph /  16.1km/h 72% 0in /  0.0mm
04:24 48.2 °F /  9 °C 39.7 °F /  4.3 °C 30in /  1015.5hPa SSO 6.4mph /  10.3km/h 8.1mph /  13km/h 72% 0in /  0.0mm
04:29 48.4 °F /  9.1 °C 39.7 °F /  4.3 °C 30in /  1015.5hPa SSO 5.4mph /  8.7km/h 8.5mph /  13.7km/h 71.8% 0in /  0.0mm
04:34 48.4 °F /  9.1 °C 39.4 °F /  4.1 °C 30in /  1015.5hPa SSO 4.7mph /  7.6km/h 9mph /  14.5km/h 71% 0in /  0.0mm
04:39 48.6 °F /  9.2 °C 39.6 °F /  4.2 °C 30in /  1015.4hPa Sur 4.3mph /  6.9km/h 6mph /  9.7km/h 71% 0in /  0.0mm
04:44 48.6 °F /  9.2 °C 39.6 °F /  4.2 °C 30in /  1015.4hPa SSO 4mph /  6.5km/h 5.2mph /  8.4km/h 71% 0in /  0.0mm
04:49 48.6 °F /  9.2 °C 39.6 °F /  4.2 °C 30in /  1015.4hPa Sur 3.4mph /  5.5km/h 5mph /  8km/h 71% 0in /  0.0mm
04:54 48.6 °F /  9.2 °C 39.6 °F /  4.2 °C 30in /  1015.3hPa SSO 2.9mph /  4.6km/h 5mph /  8km/h 71% 0in /  0.0mm
04:59 48.6 °F /  9.2 °C 39.6 °F /  4.2 °C 30in /  1015.3hPa SSO 3mph /  4.9km/h 5.9mph /  9.5km/h 71% 0in /  0.0mm
05:04 48.6 °F /  9.2 °C 39.6 °F /  4.2 °C 30in /  1015.3hPa SSO 3.1mph /  5km/h 6mph /  9.7km/h 70.7% 0in /  0.0mm
05:09 48.6 °F /  9.2 °C 39.2 °F /  4 °C 30in /  1015.2hPa SO 3.1mph /  5km/h 8.1mph /  13km/h 70% 0in /  0.0mm
05:14 48.6 °F /  9.2 °C 39.2 °F /  4 °C 30in /  1015.2hPa SSO 3.1mph /  5km/h 8.5mph /  13.7km/h 70% 0in /  0.0mm
05:19 48.4 °F /  9.1 °C 39 °F /  3.9 °C 30in /  1015.2hPa SSO 4.4mph /  7.1km/h 9mph /  14.5km/h 70% 0in /  0.0mm
05:24 48.4 °F /  9.1 °C 39 °F /  3.9 °C 30in /  1015.1hPa SSO 5.4mph /  8.7km/h 8.5mph /  13.7km/h 70% 0in /  0.0mm
05:29 48.4 °F /  9.1 °C 39 °F /  3.9 °C 30in /  1015.1hPa SSO 5.4mph /  8.7km/h 9mph /  14.5km/h 70.3% 0in /  0.0mm
05:34 48.2 °F /  9 °C 39 °F /  3.9 °C 30in /  1015.1hPa SSO 5.4mph /  8.7km/h 9.2mph /  14.8km/h 70.2% 0in /  0.0mm
05:39 48.4 °F /  9.1 °C 39 °F /  3.9 °C 30in /  1015.0hPa SSO 5.4mph /  8.7km/h 9mph /  14.5km/h 70% 0in /  0.0mm
05:44 48.4 °F /  9.1 °C 39 °F /  3.9 °C 30in /  1015.0hPa SSO 5.4mph /  8.7km/h 8.1mph /  13km/h 70% 0in /  0.0mm
05:49 48.4 °F /  9.1 °C 39 °F /  3.9 °C 30in /  1015.0hPa SSO 5.4mph /  8.7km/h 8.1mph /  13km/h 70% 0in /  0.0mm
05:54 48.4 °F /  9.1 °C 39 °F /  3.9 °C 30in /  1015.0hPa SSO 5.4mph /  8.7km/h 8mph /  12.9km/h 70% 0in /  0.0mm
05:59 48.4 °F /  9.1 °C 39 °F /  3.9 °C 30in /  1015.0hPa OSO 4.5mph /  7.3km/h 6mph /  9.7km/h 70% 0in /  0.0mm
06:04 48.2 °F /  9 °C 38.8 °F /  3.8 °C 30in /  1015.0hPa NO 4mph /  6.5km/h 6mph /  9.7km/h 70% 0in /  0.0mm
06:09 48 °F /  8.9 °C 38.8 °F /  3.8 °C 30in /  1015.0hPa SO 2.9mph /  4.6km/h 5.9mph /  9.5km/h 70.5% 0in /  0.0mm
06:14 48 °F /  8.9 °C 39 °F /  3.9 °C 30in /  1015.0hPa SO 2mph /  3.2km/h 6mph /  9.7km/h 71% 0in /  0.0mm
06:19 48 °F /  8.9 °C 38.8 °F /  3.8 °C 30in /  1015.0hPa SO 2.5mph /  4km/h 6mph /  9.7km/h 70.6% 0in /  0.0mm
06:24 48 °F /  8.9 °C 38.8 °F /  3.8 °C 30in /  1015.0hPa SSO 2.9mph /  4.7km/h 6mph /  9.7km/h 70% 0in /  0.0mm
06:29 48.4 °F /  9.1 °C 38.8 °F /  3.8 °C 30in /  1015.0hPa SSO 3mph /  4.8km/h 6.2mph /  10km/h 69.5% 0in /  0.0mm
06:34 48.6 °F /  9.2 °C 38.8 °F /  3.8 °C 30in /  1015.0hPa SO 3.1mph /  5km/h 6mph /  9.7km/h 68.9% 0in /  0.0mm
06:39 48.7 °F /  9.3 °C 38.7 °F /  3.7 °C 30in /  1015.0hPa SO 3.4mph /  5.4km/h 6mph /  9.7km/h 68% 0in /  0.0mm
06:44 48.9 °F /  9.4 °C 38.8 °F /  3.8 °C 30in /  1015.0hPa SO 3.6mph /  5.8km/h 6mph /  9.7km/h 68% 0in /  0.0mm
06:49 48.9 °F /  9.4 °C 38.8 °F /  3.8 °C 30in /  1015.2hPa SO 3.9mph /  6.2km/h 6.4mph /  10.3km/h 68% 0in /  0.0mm
06:54 48.9 °F /  9.4 °C 38.7 °F /  3.7 °C 30in /  1015.2hPa SSO 4mph /  6.5km/h 9.2mph /  14.8km/h 67.8% 0in /  0.0mm
06:59 49.1 °F /  9.5 °C 38.7 °F /  3.7 °C 30in /  1015.2hPa SO 4.7mph /  7.5km/h 9.2mph /  14.8km/h 67% 0in /  0.0mm
07:04 49.1 °F /  9.5 °C 38.7 °F /  3.7 °C 30in /  1015.2hPa SO 5.2mph /  8.4km/h 8mph /  12.9km/h 67% 0in /  0.0mm
07:09 49.1 °F /  9.5 °C 38.7 °F /  3.7 °C 30in /  1015.2hPa SO 4.9mph /  7.9km/h 11.8mph /  19km/h 67% 0in /  0.0mm
07:14 49.1 °F /  9.5 °C 38.7 °F /  3.7 °C 30in /  1015.2hPa SSO 4.7mph /  7.6km/h 12mph /  19.3km/h 67% 0in /  0.0mm
07:19 49.1 °F /  9.5 °C 38.7 °F /  3.7 °C 30in /  1015.3hPa SSO 5.3mph /  8.6km/h 9mph /  14.5km/h 67% 0in /  0.0mm
07:24 48.9 °F /  9.4 °C 38.5 °F /  3.6 °C 30in /  1015.3hPa SSO 5.9mph /  9.5km/h 9.7mph /  15.6km/h 67% 0in /  0.0mm
07:29 48.9 °F /  9.4 °C 38.5 °F /  3.6 °C 30in /  1015.3hPa SO 5.6mph /  9km/h 10mph /  16.1km/h 67% 0in /  0.0mm
07:34 48.7 °F /  9.3 °C 38.5 °F /  3.6 °C 30in /  1015.3hPa SSO 5.4mph /  8.7km/h 8.5mph /  13.7km/h 67.6% 0in /  0.0mm
07:39 48.7 °F /  9.3 °C 38.7 °F /  3.7 °C 30in /  1015.3hPa SSO 5.7mph /  9.1km/h 9.2mph /  14.8km/h 68% 0in /  0.0mm
07:44 48.7 °F /  9.3 °C 38.5 °F /  3.6 °C 30in /  1015.3hPa SSO 5.9mph /  9.5km/h 9mph /  14.5km/h 67.4% 0in /  0.0mm
07:49 48.7 °F /  9.3 °C 38.3 °F /  3.5 °C 30in /  1015.5hPa SSO 5.6mph /  9km/h 8.5mph /  13.7km/h 67% 0in /  0.0mm
07:54 48.7 °F /  9.3 °C 38.3 °F /  3.5 °C 30in /  1015.5hPa SSO 5.4mph /  8.7km/h 9.7mph /  15.6km/h 67% 0in /  0.0mm
07:59 48.7 °F /  9.3 °C 38.3 °F /  3.5 °C 30in /  1015.5hPa SSO 5.7mph /  9.2km/h 10.4mph /  16.7km/h 67% 0in /  0.0mm
08:04 48.7 °F /  9.3 °C 38.3 °F /  3.5 °C 30in /  1015.6hPa SSO 5.9mph /  9.5km/h 11.5mph /  18.5km/h 67% 0in /  0.0mm
08:09 48.7 °F /  9.3 °C 38.3 °F /  3.5 °C 30in /  1015.6hPa SSO 6.2mph /  10km/h 12mph /  19.3km/h 67% 0in /  0.0mm
08:14 48.7 °F /  9.3 °C 38.3 °F /  3.5 °C 30in /  1015.6hPa SSO 6.4mph /  10.3km/h 12mph /  19.3km/h 67% 0in /  0.0mm
08:19 48.7 °F /  9.3 °C 38.3 °F /  3.5 °C 30in /  1015.6hPa SSO 6.3mph /  10.1km/h 9.7mph /  15.6km/h 67% 0in /  0.0mm
08:24 48.7 °F /  9.3 °C 38.3 °F /  3.5 °C 30in /  1015.6hPa SSO 6.2mph /  10km/h 11.5mph /  18.5km/h 67% 0in /  0.0mm
08:29 48.7 °F /  9.3 °C 38.3 °F /  3.5 °C 30in /  1015.6hPa SSO 6.2mph /  10km/h 12mph /  19.3km/h 67% 0in /  0.0mm
08:34 48.7 °F /  9.3 °C 38.3 °F /  3.5 °C 30in /  1015.7hPa SSO 6.2mph /  10km/h 11.8mph /  19km/h 67% 0in /  0.0mm
08:39 48.7 °F /  9.3 °C 38.3 °F /  3.5 °C 30in /  1015.7hPa SO 6.3mph /  10.2km/h 12mph /  19.3km/h 67% 0in /  0.0mm
08:44 48.7 °F /  9.3 °C 38.3 °F /  3.5 °C 30in /  1015.7hPa SSO 6.4mph /  10.3km/h 10mph /  16.1km/h 67% 0in /  0.0mm
08:49 48.6 °F /  9.2 °C 38.1 °F /  3.4 °C 30in /  1015.8hPa SO 5.7mph /  9.2km/h 9mph /  14.5km/h 67% 0in /  0.0mm
08:54 48.6 °F /  9.2 °C 38.1 °F /  3.4 °C 30in /  1015.8hPa SSO 5.2mph /  8.4km/h 9mph /  14.5km/h 67% 0in /  0.0mm
08:59 48.6 °F /  9.2 °C 38.1 °F /  3.4 °C 30in /  1015.8hPa SO 5.3mph /  8.6km/h 9.7mph /  15.6km/h 67% 0in /  0.0mm
09:04 48.6 °F /  9.2 °C 38.1 °F /  3.4 °C 30in /  1015.8hPa SSO 5.4mph /  8.7km/h 10.4mph /  16.7km/h 67% 0in /  0.0mm
09:09 48.6 °F /  9.2 °C 38.1 °F /  3.4 °C 30in /  1015.8hPa SO 5.8mph /  9.4km/h 10.4mph /  16.7km/h 67% 0in /  0.0mm
09:14 48.7 °F /  9.3 °C 38.3 °F /  3.5 °C 30in /  1015.8hPa SO 6.2mph /  10km/h 11.8mph /  19km/h 67% 0in /  0.0mm
09:19 48.7 °F /  9.3 °C 38.3 °F /  3.5 °C 30in /  1015.9hPa SO 6.9mph /  11.1km/h 13.8mph /  22.2km/h 67% 0in /  0.0mm
09:24 48.7 °F /  9.3 °C 38.3 °F /  3.5 °C 30in /  1015.9hPa SO 7.4mph /  11.9km/h 14mph /  22.5km/h 67% 0in /  0.0mm
09:29 48.7 °F /  9.3 °C 38.3 °F /  3.5 °C 30in /  1015.9hPa SO 7.5mph /  12.1km/h 13mph /  20.9km/h 67% 0in /  0.0mm
09:34 48.7 °F /  9.3 °C 38.3 °F /  3.5 °C 30in /  1016.2hPa SO 7.6mph /  12.2km/h 13mph /  20.9km/h 67% 0in /  0.0mm
09:39 48.7 °F /  9.3 °C 38.3 °F /  3.5 °C 30in /  1016.2hPa SSO 7.6mph /  12.2km/h 13mph /  20.9km/h 67% 0in /  0.0mm
09:44 48.6 °F /  9.2 °C 38.1 °F /  3.4 °C 30in /  1016.2hPa SSO 7.6mph /  12.2km/h 13mph /  20.9km/h 67% 0in /  0.0mm
09:49 48.6 °F /  9.2 °C 38.1 °F /  3.4 °C 30in /  1016.3hPa SSO 7.5mph /  12.1km/h 15mph /  24.1km/h 67% 0in /  0.0mm
09:54 48.7 °F /  9.3 °C 38.3 °F /  3.5 °C 30in /  1016.3hPa SSO 7.4mph /  11.9km/h 15mph /  24.1km/h 67% 0in /  0.0mm
09:59 48.7 °F /  9.3 °C 38.3 °F /  3.5 °C 30in /  1016.3hPa SSO 7.1mph /  11.4km/h 11.5mph /  18.5km/h 67% 0in /  0.0mm
10:04 48.9 °F /  9.4 °C 38.3 °F /  3.5 °C 30in /  1016.5hPa SSO 6.9mph /  11.1km/h 13.5mph /  21.7km/h 66.9% 0in /  0.0mm
10:09 49.3 °F /  9.6 °C 38.3 °F /  3.5 °C 30in /  1016.5hPa SSO 7.2mph /  11.6km/h 14mph /  22.5km/h 66% 0in /  0.0mm
10:14 49.5 °F /  9.7 °C 38.5 °F /  3.6 °C 30in /  1016.5hPa SSO 7.4mph /  11.9km/h 14mph /  22.5km/h 66% 0in /  0.0mm
10:19 49.6 °F /  9.8 °C 38.5 °F /  3.6 °C 30in /  1016.6hPa SSO 7.1mph /  11.4km/h 15mph /  24.1km/h 65.4% 0in /  0.0mm
10:24 49.8 °F /  9.9 °C 38.5 °F /  3.6 °C 30in /  1016.6hPa SSO 6.9mph /  11.1km/h 15mph /  24.1km/h 65% 0in /  0.0mm
10:29 49.8 °F /  9.9 °C 38.7 °F /  3.7 °C 30in /  1016.6hPa SSO 7.8mph /  12.6km/h 13mph /  20.9km/h 65% 0in /  0.0mm
10:34 50.2 °F /  10.1 °C 38.7 °F /  3.7 °C 30in /  1016.7hPa SSO 8.5mph /  13.7km/h 13mph /  20.9km/h 64.6% 0in /  0.0mm
10:39 50.4 °F /  10.2 °C 38.5 °F /  3.6 °C 30in /  1016.7hPa SSO 8.5mph /  13.7km/h 13mph /  20.9km/h 64% 0in /  0.0mm
10:44 50.4 °F /  10.2 °C 38.7 °F /  3.7 °C 30in /  1016.7hPa SSO 8.5mph /  13.7km/h 13mph /  20.9km/h 64% 0in /  0.0mm
10:49 50.5 °F /  10.3 °C 38.8 °F /  3.8 °C 30in /  1016.8hPa SO 8mph /  12.9km/h 13mph /  20.9km/h 64% 0in /  0.0mm
10:54 50.7 °F /  10.4 °C 39 °F /  3.9 °C 30in /  1016.8hPa SSO 7.6mph /  12.2km/h 12mph /  19.3km/h 64% 0in /  0.0mm
10:59 51.3 °F /  10.7 °C 39.2 °F /  4 °C 30in /  1016.8hPa SSO 7.5mph /  12km/h 11.5mph /  18.5km/h 63.7% 0in /  0.0mm
11:04 51.4 °F /  10.8 °C 39.2 °F /  4 °C 30in /  1016.8hPa SSO 7.4mph /  11.9km/h 12mph /  19.3km/h 63% 0in /  0.0mm
11:09 51.6 °F /  10.9 °C 39.2 °F /  4 °C 30in /  1016.8hPa SSO 7.4mph /  11.9km/h 13mph /  20.9km/h 62.4% 0in /  0.0mm
11:14 51.8 °F /  11 °C 39.2 °F /  4 °C 30in /  1016.8hPa SSO 7.4mph /  11.9km/h 13mph /  20.9km/h 62% 0in /  0.0mm
11:19 52.2 °F /  11.2 °C 39.4 °F /  4.1 °C 30in /  1016.8hPa SSO 7.5mph /  12.1km/h 13.8mph /  22.2km/h 61.9% 0in /  0.0mm
11:24 52.2 °F /  11.2 °C 39.6 °F /  4.2 °C 30in /  1016.7hPa SSO 7.6mph /  12.2km/h 14mph /  22.5km/h 61.9% 0in /  0.0mm
11:29 52.5 °F /  11.4 °C 39.6 °F /  4.2 °C 30in /  1016.7hPa SO 7.5mph /  12km/h 13mph /  20.9km/h 61% 0in /  0.0mm
11:34 52.9 °F /  11.6 °C 39.7 °F /  4.3 °C 30in /  1016.7hPa SO 7.4mph /  11.9km/h 13.8mph /  22.2km/h 60.7% 0in /  0.0mm
11:39 53.1 °F /  11.7 °C 39.7 °F /  4.3 °C 30in /  1016.7hPa SO 7.1mph /  11.4km/h 14mph /  22.5km/h 60.4% 0in /  0.0mm
11:44 53.2 °F /  11.8 °C 39.7 °F /  4.3 °C 30in /  1016.7hPa SO 6.9mph /  11.1km/h 13mph /  20.9km/h 60% 0in /  0.0mm
11:49 53.6 °F /  12 °C 39.9 °F /  4.4 °C 30in /  1016.7hPa OSO 6.3mph /  10.2km/h 10.2mph /  16.4km/h 59.6% 0in /  0.0mm
11:54 54 °F /  12.2 °C 39.6 °F /  4.2 °C 30in /  1016.7hPa SO 5.9mph /  9.5km/h 13mph /  20.9km/h 58.2% 0in /  0.0mm
11:59 54.1 °F /  12.3 °C 39.4 °F /  4.1 °C 30in /  1016.7hPa OSO 6.5mph /  10.5km/h 15.2mph /  24.5km/h 57.3% 0in /  0.0mm
12:04 54.3 °F /  12.4 °C 38.5 °F /  3.6 °C 30in /  1016.7hPa OSO 6.9mph /  11.1km/h 15.6mph /  25.1km/h 55% 0in /  0.0mm
12:09 54.5 °F /  12.5 °C 38.8 °F /  3.8 °C 30in /  1016.6hPa OSO 7.2mph /  11.6km/h 16mph /  25.7km/h 55.3% 0in /  0.0mm
12:14 54.9 °F /  12.7 °C 38.5 °F /  3.6 °C 30in /  1016.6hPa OSO 7.4mph /  11.9km/h 16.3mph /  26.2km/h 54.2% 0in /  0.0mm
12:19 54.9 °F /  12.7 °C 38.1 °F /  3.4 °C 30in /  1016.6hPa OSO 7.5mph /  12.1km/h 16.1mph /  25.9km/h 53.3% 0in /  0.0mm
12:24 55 °F /  12.8 °C 38.3 °F /  3.5 °C 30in /  1016.5hPa OSO 7.6mph /  12.2km/h 16mph /  25.7km/h 52.9% 0in /  0.0mm
12:29 55.6 °F /  13.1 °C 38.1 °F /  3.4 °C 30in /  1016.5hPa OSO 7.6mph /  12.2km/h 16.1mph /  25.9km/h 52% 0in /  0.0mm
12:34 55.8 °F /  13.2 °C 38.1 °F /  3.4 °C 30in /  1016.5hPa OSO 7.6mph /  12.2km/h 16mph /  25.7km/h 51.4% 0in /  0.0mm
12:39 55.9 °F /  13.3 °C 38.1 °F /  3.4 °C 30in /  1016.3hPa OSO 6.8mph /  10.9km/h 15mph /  24.1km/h 51% 0in /  0.0mm
12:44 56.5 °F /  13.6 °C 38.1 °F /  3.4 °C 30in /  1016.3hPa Oeste 6.2mph /  10km/h 14mph /  22.5km/h 50.2% 0in /  0.0mm
12:49 56.5 °F /  13.6 °C 37.8 °F /  3.2 °C 30in /  1016.3hPa Oeste 7.5mph /  12km/h 20.7mph /  33.3km/h 49.6% 0in /  0.0mm
12:54 56.3 °F /  13.5 °C 37.6 °F /  3.1 °C 30in /  1016.1hPa OSO 8.5mph /  13.7km/h 21mph /  33.8km/h 49.2% 0in /  0.0mm
12:59 56.5 °F /  13.6 °C 37.6 °F /  3.1 °C 30in /  1016.1hPa Oeste 8.9mph /  14.4km/h 18.4mph /  29.6km/h 49.3% 0in /  0.0mm
13:04 56.3 °F /  13.5 °C 37.8 °F /  3.2 °C 30in /  1016.1hPa OSO 9.2mph /  14.8km/h 18mph /  29km/h 49.8% 0in /  0.0mm
13:09 56.3 °F /  13.5 °C 37.6 °F /  3.1 °C 30in /  1015.8hPa OSO 9.2mph /  14.8km/h 18.4mph /  29.6km/h 49.3% 0in /  0.0mm
13:14 56.1 °F /  13.4 °C 37.4 °F /  3 °C 30in /  1015.8hPa OSO 9.2mph /  14.8km/h 18mph /  29km/h 49.2% 0in /  0.0mm
13:19 56.1 °F /  13.4 °C 37.8 °F /  3.2 °C 30in /  1015.8hPa OSO 9.4mph /  15.2km/h 17mph /  27.4km/h 50% 0in /  0.0mm
13:24 56.7 °F /  13.7 °C 37.8 °F /  3.2 °C 30in /  1015.6hPa OSO 9.7mph /  15.6km/h 15.6mph /  25.1km/h 49.2% 0in /  0.0mm
13:29 56.7 °F /  13.7 °C 37.6 °F /  3.1 °C 30in /  1015.6hPa OSO 9.1mph /  14.7km/h 16mph /  25.7km/h 49% 0in /  0.0mm
13:34 56.7 °F /  13.7 °C 37.8 °F /  3.2 °C 30in /  1015.6hPa OSO 8.7mph /  14km/h 15mph /  24.1km/h 49% 0in /  0.0mm
13:39 56.7 °F /  13.7 °C 37.6 °F /  3.1 °C 30in /  1015.5hPa OSO 8.6mph /  13.8km/h 13mph /  20.9km/h 48.7% 0in /  0.0mm
13:44 56.8 °F /  13.8 °C 37.8 °F /  3.2 °C 30in /  1015.5hPa SO 8.5mph /  13.7km/h 13.8mph /  22.2km/h 48.6% 0in /  0.0mm
13:49 57 °F /  13.9 °C 37.4 °F /  3 °C 30in /  1015.5hPa OSO 8mph /  12.8km/h 17.3mph /  27.8km/h 47.8% 0in /  0.0mm
13:54 57 °F /  13.9 °C 37.4 °F /  3 °C 30in /  1015.3hPa Oeste 7.6mph /  12.2km/h 17.3mph /  27.8km/h 47.9% 0in /  0.0mm
13:59 57.2 °F /  14 °C 37.2 °F /  2.9 °C 30in /  1015.3hPa Oeste 7.6mph /  12.2km/h 14mph /  22.5km/h 47.1% 0in /  0.0mm
14:04 57.4 °F /  14.1 °C 37.2 °F /  2.9 °C 30in /  1015.3hPa OSO 7.6mph /  12.2km/h 15.9mph /  25.6km/h 47% 0in /  0.0mm
14:09 57.4 °F /  14.1 °C 37.2 °F /  2.9 °C 30in /  1015.0hPa OSO 7.6mph /  12.2km/h 17.3mph /  27.8km/h 47% 0in /  0.0mm
14:14 57.2 °F /  14 °C 37.2 °F /  2.9 °C 30in /  1015.0hPa SO 7.6mph /  12.2km/h 17mph /  27.4km/h 47% 0in /  0.0mm
14:19 57.4 °F /  14.1 °C 37.4 °F /  3 °C 30in /  1015.0hPa Oeste 6.2mph /  10km/h 11.5mph /  18.5km/h 47.2% 0in /  0.0mm
14:24 57.6 °F /  14.2 °C 37.8 °F /  3.2 °C 30in /  1014.9hPa OSO 5.2mph /  8.4km/h 12mph /  19.3km/h 47.5% 0in /  0.0mm
14:29 57.6 °F /  14.2 °C 38.1 °F /  3.4 °C 30in /  1014.9hPa SSO 5.3mph /  8.5km/h 11.4mph /  18.3km/h 48% 0in /  0.0mm
14:34 57.6 °F /  14.2 °C 38.3 °F /  3.5 °C 30in /  1014.9hPa SSO 5.4mph /  8.7km/h 12mph /  19.3km/h 48.4% 0in /  0.0mm
14:39 57.6 °F /  14.2 °C 38.5 °F /  3.6 °C 30in /  1014.7hPa SO 5.4mph /  8.7km/h 9mph /  14.5km/h 48.9% 0in /  0.0mm
14:44 57.6 °F /  14.2 °C 38.5 °F /  3.6 °C 30in /  1014.7hPa SSO 5.4mph /  8.7km/h 9mph /  14.5km/h 49% 0in /  0.0mm
14:49 57.6 °F /  14.2 °C 38.5 °F /  3.6 °C 30in /  1014.7hPa SO 5mph /  8km/h 10mph /  16.1km/h 49% 0in /  0.0mm
14:54 57.6 °F /  14.2 °C 38.5 °F /  3.6 °C 30in /  1014.5hPa SO 4.7mph /  7.6km/h 10.4mph /  16.7km/h 48.8% 0in /  0.0mm
14:59 57.6 °F /  14.2 °C 38.5 °F /  3.6 °C 30in /  1014.5hPa SSO 4.7mph /  7.6km/h 9.2mph /  14.8km/h 48.9% 0in /  0.0mm
15:04 57.7 °F /  14.3 °C 38.5 °F /  3.6 °C 30in /  1014.6hPa OSO 4.7mph /  7.6km/h 9.2mph /  14.8km/h 48.6% 0in /  0.0mm
15:09 57.7 °F /  14.3 °C 38.7 °F /  3.7 °C 30in /  1014.6hPa SSO 4.7mph /  7.6km/h 10mph /  16.1km/h 48.7% 0in /  0.0mm
15:14 57.7 °F /  14.3 °C 38.7 °F /  3.7 °C 30in /  1014.6hPa SSO 4.7mph /  7.6km/h 10.4mph /  16.7km/h 49% 0in /  0.0mm
15:19 57.7 °F /  14.3 °C 38.7 °F /  3.7 °C 30in /  1014.6hPa SSO 5.7mph /  9.1km/h 10.4mph /  16.7km/h 49% 0in /  0.0mm
15:24 57.6 °F /  14.2 °C 38.5 °F /  3.6 °C 30in /  1014.5hPa SSO 6.4mph /  10.3km/h 10.7mph /  17.2km/h 49% 0in /  0.0mm
15:29 57.7 °F /  14.3 °C 38.7 °F /  3.7 °C 30in /  1014.5hPa SSO 6.3mph /  10.1km/h 11mph /  17.7km/h 49% 0in /  0.0mm
15:34 57.7 °F /  14.3 °C 38.7 °F /  3.7 °C 30in /  1014.5hPa Sur 6.2mph /  10km/h 9.2mph /  14.8km/h 48.8% 0in /  0.0mm
15:39 57.7 °F /  14.3 °C 38.7 °F /  3.7 °C 30in /  1014.4hPa SSO 6.2mph /  10km/h 10.4mph /  16.7km/h 48.9% 0in /  0.0mm
15:44 58.1 °F /  14.5 °C 39 °F /  3.9 °C 30in /  1014.4hPa SO 6.2mph /  10km/h 10.7mph /  17.2km/h 48.7% 0in /  0.0mm
15:49 58.5 °F /  14.7 °C 38.7 °F /  3.7 °C 30in /  1014.4hPa SO 6mph /  9.7km/h 11mph /  17.7km/h 47.6% 0in /  0.0mm
15:54 58.5 °F /  14.7 °C 38.5 °F /  3.6 °C 30in /  1014.4hPa SSO 5.9mph /  9.5km/h 11mph /  17.7km/h 47.3% 0in /  0.0mm
15:59 58.3 °F /  14.6 °C 38.5 °F /  3.6 °C 30in /  1014.4hPa SSO 6.1mph /  9.8km/h 10.4mph /  16.7km/h 47.7% 0in /  0.0mm
16:04 58.3 °F /  14.6 °C 38.7 °F /  3.7 °C 30in /  1014.4hPa SSO 6.2mph /  10km/h 10mph /  16.1km/h 48% 0in /  0.0mm
16:09 58.1 °F /  14.5 °C 38.8 °F /  3.8 °C 30in /  1014.4hPa SO 5.8mph /  9.3km/h 9mph /  14.5km/h 48.5% 0in /  0.0mm
16:14 58.1 °F /  14.5 °C 39 °F /  3.9 °C 30in /  1014.4hPa SSO 5.4mph /  8.7km/h 8.5mph /  13.7km/h 49% 0in /  0.0mm
16:19 57.9 °F /  14.4 °C 39 °F /  3.9 °C 30in /  1014.4hPa SSO 5.3mph /  8.5km/h 9mph /  14.5km/h 49.3% 0in /  0.0mm
16:24 57.7 °F /  14.3 °C 38.8 °F /  3.8 °C 30in /  1014.4hPa SSO 5.2mph /  8.4km/h 8mph /  12.9km/h 49.2% 0in /  0.0mm
16:29 57.9 °F /  14.4 °C 39 °F /  3.9 °C 30in /  1014.4hPa SSO 4.9mph /  7.9km/h 8mph /  12.9km/h 49.3% 0in /  0.0mm
16:34 57.9 °F /  14.4 °C 39 °F /  3.9 °C 30in /  1014.5hPa Sur 4.7mph /  7.6km/h 8.5mph /  13.7km/h 49.2% 0in /  0.0mm
16:39 57.9 °F /  14.4 °C 39.4 °F /  4.1 °C 30in /  1014.5hPa Sur 5.1mph /  8.2km/h 9mph /  14.5km/h 49.9% 0in /  0.0mm
16:44 58.1 °F /  14.5 °C 39 °F /  3.9 °C 30in /  1014.5hPa SSO 5.4mph /  8.7km/h 8.5mph /  13.7km/h 49% 0in /  0.0mm
16:49 58.1 °F /  14.5 °C 39 °F /  3.9 °C 30in /  1014.5hPa SSO 5.3mph /  8.5km/h 9mph /  14.5km/h 49% 0in /  0.0mm
16:54 58.1 °F /  14.5 °C 39 °F /  3.9 °C 30in /  1014.5hPa SSO 5.2mph /  8.4km/h 10.7mph /  17.2km/h 49% 0in /  0.0mm
16:59 58.1 °F /  14.5 °C 39 °F /  3.9 °C 30in /  1014.5hPa SSO 5.8mph /  9.4km/h 11mph /  17.7km/h 49% 0in /  0.0mm
17:04 57.9 °F /  14.4 °C 39 °F /  3.9 °C 30in /  1014.5hPa SO 6.2mph /  10km/h 8.1mph /  13km/h 49% 0in /  0.0mm
17:09 57.9 °F /  14.4 °C 38.3 °F /  3.5 °C 30in /  1014.5hPa Sur 5.6mph /  9km/h 13mph /  20.9km/h 48% 0in /  0.0mm
17:14 57.9 °F /  14.4 °C 38.3 °F /  3.5 °C 30in /  1014.5hPa SO 5.2mph /  8.4km/h 13mph /  20.9km/h 48% 0in /  0.0mm
17:19 57.9 °F /  14.4 °C 38.3 °F /  3.5 °C 30in /  1014.6hPa SSO 5.7mph /  9.2km/h 11mph /  17.7km/h 48% 0in /  0.0mm
17:24 57.7 °F /  14.3 °C 38.1 °F /  3.4 °C 30in /  1014.6hPa SSO 6.2mph /  10km/h 10mph /  16.1km/h 48% 0in /  0.0mm
17:29 57.7 °F /  14.3 °C 38.1 °F /  3.4 °C 30in /  1014.6hPa SSO 5.6mph /  9km/h 8.5mph /  13.7km/h 48% 0in /  0.0mm
17:34 57.7 °F /  14.3 °C 38.5 °F /  3.6 °C 30in /  1014.6hPa SSO 5.2mph /  8.4km/h 9mph /  14.5km/h 48.6% 0in /  0.0mm
17:39 57.6 °F /  14.2 °C 38.5 °F /  3.6 °C 30in /  1014.5hPa SSO 4.7mph /  7.6km/h 7mph /  11.3km/h 49% 0in /  0.0mm
17:44 57.4 °F /  14.1 °C 38.5 °F /  3.6 °C 30in /  1014.5hPa SSO 4.3mph /  6.9km/h 6mph /  9.7km/h 49% 0in /  0.0mm
17:49 57.4 °F /  14.1 °C 38.7 °F /  3.7 °C 30in /  1014.6hPa SO 4.2mph /  6.7km/h 6.9mph /  11.1km/h 49.8% 0in /  0.0mm
17:54 57 °F /  13.9 °C 38.7 °F /  3.7 °C 30in /  1014.6hPa SO 4mph /  6.5km/h 8.5mph /  13.7km/h 50.2% 0in /  0.0mm
17:59 56.8 °F /  13.8 °C 39 °F /  3.9 °C 30in /  1014.6hPa SO 4.2mph /  6.7km/h 9mph /  14.5km/h 51% 0in /  0.0mm
18:04 56.8 °F /  13.8 °C 38.8 °F /  3.8 °C 30in /  1014.7hPa SO 4.3mph /  6.9km/h 8mph /  12.9km/h 51% 0in /  0.0mm
18:09 56.7 °F /  13.7 °C 39 °F /  3.9 °C 30in /  1014.7hPa SO 4.3mph /  6.9km/h 7mph /  11.3km/h 51.6% 0in /  0.0mm
18:14 56.7 °F /  13.7 °C 39.2 °F /  4 °C 30in /  1014.7hPa SO 4.3mph /  6.9km/h 7mph /  11.3km/h 52% 0in /  0.0mm
18:19 56.5 °F /  13.6 °C 39 °F /  3.9 °C 30in /  1015.0hPa SSO 4.3mph /  6.9km/h 7.4mph /  11.9km/h 52% 0in /  0.0mm
18:24 56.5 °F /  13.6 °C 39 °F /  3.9 °C 30in /  1015.0hPa SSO 4.3mph /  6.9km/h 7mph /  11.3km/h 52% 0in /  0.0mm
18:29 56.3 °F /  13.5 °C 39.4 °F /  4.1 °C 30in /  1015.0hPa SSO 3.9mph /  6.3km/h 6mph /  9.7km/h 53% 0in /  0.0mm
18:34 56.1 °F /  13.4 °C 39.2 °F /  4 °C 30in /  1015.0hPa SSO 3.6mph /  5.8km/h 5mph /  8km/h 53% 0in /  0.0mm
18:39 56.1 °F /  13.4 °C 39.4 °F /  4.1 °C 30in /  1015.0hPa SSO 3.2mph /  5.2km/h 5mph /  8km/h 53.5% 0in /  0.0mm
18:44 55.9 °F /  13.3 °C 39.6 °F /  4.2 °C 30in /  1015.0hPa SSO 2.9mph /  4.7km/h 5mph /  8km/h 54% 0in /  0.0mm
18:49 55.8 °F /  13.2 °C 39.4 °F /  4.1 °C 30in /  1015.1hPa SSO 2.9mph /  4.6km/h 5mph /  8km/h 54.1% 0in /  0.0mm
18:54 55.6 °F /  13.1 °C 39.7 °F /  4.3 °C 30in /  1015.1hPa SSO 2.9mph /  4.6km/h 5mph /  8km/h 55% 0in /  0.0mm
18:59 55.4 °F /  13 °C 39.6 °F /  4.2 °C 30in /  1015.1hPa SSO 2.4mph /  3.8km/h 3.6mph /  5.8km/h 55% 0in /  0.0mm
19:04 55.2 °F /  12.9 °C 39.7 °F /  4.3 °C 30in /  1015.4hPa SSO 2mph /  3.2km/h 4mph /  6.4km/h 55.7% 0in /  0.0mm
19:09 55 °F /  12.8 °C 39.7 °F /  4.3 °C 30in /  1015.4hPa SSO 0.9mph /  1.4km/h 2mph /  3.2km/h 56% 0in /  0.0mm
19:14 55 °F /  12.8 °C 39.6 °F /  4.2 °C 30in /  1015.4hPa Calm   3.6mph /  5.8km/h 56.1% 0in /  0.0mm
19:19 54.9 °F /  12.7 °C 39.7 °F /  4.3 °C 30in /  1015.5hPa SSO 0.8mph /  1.3km/h 4.6mph /  7.4km/h 56.6% 0in /  0.0mm
19:24 54.7 °F /  12.6 °C 39.7 °F /  4.3 °C 30in /  1015.5hPa SSO 1.4mph /  2.2km/h 5mph /  8km/h 57% 0in /  0.0mm
19:29 54.5 °F /  12.5 °C 39.9 °F /  4.4 °C 30in /  1015.5hPa SSO 1.6mph /  2.6km/h 4mph /  6.4km/h 57.9% 0in /  0.0mm
19:34 54.1 °F /  12.3 °C 39.7 °F /  4.3 °C 30in /  1015.6hPa SSO 1.8mph /  2.9km/h 3mph /  4.8km/h 58% 0in /  0.0mm
19:39 54 °F /  12.2 °C 39.7 °F /  4.3 °C 30in /  1015.6hPa SSO 1.8mph /  2.9km/h 3mph /  4.8km/h 58.2% 0in /  0.0mm
19:44 54 °F /  12.2 °C 39.9 °F /  4.4 °C 30in /  1015.6hPa SSO 1.8mph /  2.9km/h 3.5mph /  5.6km/h 59% 0in /  0.0mm
19:49 54 °F /  12.2 °C 39.9 °F /  4.4 °C 30in /  1015.8hPa SSO 1.8mph /  2.9km/h 3.5mph /  5.6km/h 59% 0in /  0.0mm
19:54 53.8 °F /  12.1 °C 39.7 °F /  4.3 °C 30in /  1015.8hPa SSO 1.8mph /  2.9km/h 3mph /  4.8km/h 59% 0in /  0.0mm
19:59 53.8 °F /  12.1 °C 40.1 °F /  4.5 °C 30in /  1015.8hPa SSO 1.8mph /  2.9km/h 3mph /  4.8km/h 59.6% 0in /  0.0mm
20:04 53.8 °F /  12.1 °C 40.3 °F /  4.6 °C 30in /  1015.9hPa SSO 1.8mph /  2.9km/h 3mph /  4.8km/h 60% 0in /  0.0mm
20:09 53.8 °F /  12.1 °C 40.3 °F /  4.6 °C 30in /  1015.9hPa SSO 1.6mph /  2.5km/h 3mph /  4.8km/h 60% 0in /  0.0mm
20:14 53.8 °F /  12.1 °C 40.1 °F /  4.5 °C 30in /  1015.9hPa SSO 1.4mph /  2.2km/h 4.6mph /  7.4km/h 60% 0in /  0.0mm
20:19 53.6 °F /  12 °C 40.1 °F /  4.5 °C 30in /  1016.0hPa Sur 1.6mph /  2.6km/h 6.4mph /  10.3km/h 60.2% 0in /  0.0mm
20:24 53.2 °F /  11.8 °C 40.1 °F /  4.5 °C 30in /  1016.0hPa SSE 1.8mph /  2.9km/h 7.6mph /  12.2km/h 61% 0in /  0.0mm
20:29 52.7 °F /  11.5 °C 39.9 °F /  4.4 °C 30in /  1016.0hPa SSE 3.2mph /  5.2km/h 8mph /  12.9km/h 61.7% 0in /  0.0mm
20:34 52.5 °F /  11.4 °C 39.9 °F /  4.4 °C 30in /  1016.2hPa SSE 4.3mph /  6.9km/h 6mph /  9.7km/h 62% 0in /  0.0mm
20:39 52.2 °F /  11.2 °C 39.9 °F /  4.4 °C 30in /  1016.2hPa SSE 3.9mph /  6.3km/h 6mph /  9.7km/h 62.7% 0in /  0.0mm
20:44 52 °F /  11.1 °C 39.7 °F /  4.3 °C 30in /  1016.2hPa SSE 3.6mph /  5.8km/h 6mph /  9.7km/h 63% 0in /  0.0mm
20:49 52 °F /  11.1 °C 39.7 °F /  4.3 °C 30in /  1016.2hPa SSE 3.6mph /  5.8km/h 6mph /  9.7km/h 63% 0in /  0.0mm
20:54 52 °F /  11.1 °C 39.7 °F /  4.3 °C 30in /  1016.2hPa SSE 3.6mph /  5.8km/h 5mph /  8km/h 62.9% 0in /  0.0mm
20:59 52.2 °F /  11.2 °C 39.9 °F /  4.4 °C 30in /  1016.2hPa SSE 2.9mph /  4.6km/h 5mph /  8km/h 63% 0in /  0.0mm
21:04 52.2 °F /  11.2 °C 39.9 °F /  4.4 °C 30in /  1016.4hPa SSE 2.4mph /  3.9km/h 4mph /  6.4km/h 63% 0in /  0.0mm
21:09 52.2 °F /  11.2 °C 39.9 °F /  4.4 °C 30in /  1016.4hPa SSE 2.1mph /  3.3km/h 3mph /  4.8km/h 63% 0in /  0.0mm
21:14 52.3 °F /  11.3 °C 39.9 °F /  4.4 °C 30in /  1016.4hPa SSE 1.8mph /  2.9km/h 1mph /  1.6km/h 62.8% 0in /  0.0mm
21:19 52.3 °F /  11.3 °C 40.1 °F /  4.5 °C 30in /  1016.6hPa SSE 0.8mph /  1.3km/h 3.6mph /  5.8km/h 63.1% 0in /  0.0mm
21:24 52.2 °F /  11.2 °C 40.1 °F /  4.5 °C 30in /  1016.6hPa Calm   4mph /  6.4km/h 63.6% 0in /  0.0mm
21:29 52 °F /  11.1 °C 39.9 °F /  4.4 °C 30in /  1016.6hPa SSE 0.7mph /  1.2km/h 4.6mph /  7.4km/h 63.1% 0in /  0.0mm
21:34 52 °F /  11.1 °C 39.6 °F /  4.2 °C 30in /  1016.8hPa SSE 1.4mph /  2.2km/h 5mph /  8km/h 62.3% 0in /  0.0mm
21:39 52.2 °F /  11.2 °C 39 °F /  3.9 °C 30in /  1016.8hPa SSE 2.3mph /  3.7km/h 5mph /  8km/h 61% 0in /  0.0mm
21:44 52.2 °F /  11.2 °C 38.5 °F /  3.6 °C 30in /  1016.8hPa Sur 2.9mph /  4.6km/h 5.9mph /  9.5km/h 59.5% 0in /  0.0mm
21:49 52.3 °F /  11.3 °C 38.5 °F /  3.6 °C 30in /  1016.8hPa SSO 3.3mph /  5.3km/h 6.9mph /  11.1km/h 59% 0in /  0.0mm
21:54 52.5 °F /  11.4 °C 38.3 °F /  3.5 °C 30in /  1016.8hPa SO 3.6mph /  5.8km/h 7mph /  11.3km/h 58.4% 0in /  0.0mm
21:59 52.5 °F /  11.4 °C 38.3 °F /  3.5 °C 30in /  1016.8hPa SO 3.6mph /  5.8km/h 7mph /  11.3km/h 58% 0in /  0.0mm
22:04 52.9 °F /  11.6 °C 38.5 °F /  3.6 °C 30in /  1017.0hPa SO 3.6mph /  5.8km/h 6.9mph /  11.1km/h 58% 0in /  0.0mm
22:09 52.9 °F /  11.6 °C 38.5 °F /  3.6 °C 30in /  1017.0hPa SO 4mph /  6.4km/h 7mph /  11.3km/h 58.1% 0in /  0.0mm
22:14 52.9 °F /  11.6 °C 38.5 °F /  3.6 °C 30in /  1017.0hPa SSO 4.3mph /  6.9km/h 7mph /  11.3km/h 58% 0in /  0.0mm
22:19 52.9 °F /  11.6 °C 38.5 °F /  3.6 °C 30in /  1017.2hPa SO 4.3mph /  6.9km/h 7mph /  11.3km/h 57.9% 0in /  0.0mm
22:24 52.9 °F /  11.6 °C 38.5 °F /  3.6 °C 30in /  1017.2hPa SSO 4.3mph /  6.9km/h 7mph /  11.3km/h 58% 0in /  0.0mm
22:29 52.9 °F /  11.6 °C 38.5 °F /  3.6 °C 30in /  1017.2hPa SO 4.2mph /  6.7km/h 6mph /  9.7km/h 58% 0in /  0.0mm
22:34 52.9 °F /  11.6 °C 38.3 °F /  3.5 °C 30in /  1017.4hPa SO 4mph /  6.5km/h 6mph /  9.7km/h 57.3% 0in /  0.0mm
22:39 52.9 °F /  11.6 °C 37.9 °F /  3.3 °C 30in /  1017.4hPa OSO 3.4mph /  5.4km/h 8.1mph /  13km/h 56.8% 0in /  0.0mm
22:44 52.9 °F /  11.6 °C 37.9 °F /  3.3 °C 30in /  1017.4hPa ONO 2.9mph /  4.6km/h 8mph /  12.9km/h 57% 0in /  0.0mm
22:49 52.5 °F /  11.4 °C 37.8 °F /  3.2 °C 30.1in /  1017.5hPa Oeste 3.3mph /  5.3km/h 5.9mph /  9.5km/h 57% 0in /  0.0mm
22:54 52.3 °F /  11.3 °C 37.6 °F /  3.1 °C 30.1in /  1017.5hPa OSO 3.6mph /  5.8km/h 7.4mph /  11.9km/h 57% 0in /  0.0mm
22:59 52.2 °F /  11.2 °C 37.6 °F /  3.1 °C 30.1in /  1017.5hPa OSO 3.6mph /  5.8km/h 7mph /  11.3km/h 57.6% 0in /  0.0mm
23:04 52 °F /  11.1 °C 37.6 °F /  3.1 °C 30.1in /  1017.6hPa OSO 3.6mph /  5.8km/h 6.4mph /  10.3km/h 58% 0in /  0.0mm
23:09 51.6 °F /  10.9 °C 37.4 °F /  3 °C 30.1in /  1017.6hPa OSO 3.9mph /  6.2km/h 8.7mph /  14km/h 58.1% 0in /  0.0mm
23:14 51.4 °F /  10.8 °C 37.4 °F /  3 °C 30.1in /  1017.6hPa OSO 4mph /  6.5km/h 9.2mph /  14.8km/h 58.8% 0in /  0.0mm
23:19 51.3 °F /  10.7 °C 37.4 °F /  3 °C 30.1in /  1017.7hPa Oeste 4.6mph /  7.4km/h 9mph /  14.5km/h 59% 0in /  0.0mm
23:24 51.1 °F /  10.6 °C 37.2 °F /  2.9 °C 30.1in /  1017.7hPa OSO 5.2mph /  8.4km/h 7mph /  11.3km/h 59.2% 0in /  0.0mm
23:29 51.1 °F /  10.6 °C 37.6 °F /  3.1 °C 30.1in /  1017.7hPa OSO 4.1mph /  6.6km/h 6mph /  9.7km/h 60% 0in /  0.0mm
23:34 50.9 °F /  10.5 °C 37.6 °F /  3.1 °C 30.1in /  1017.8hPa OSO 3.1mph /  5km/h 5mph /  8km/h 60% 0in /  0.0mm
23:39 50.7 °F /  10.4 °C 37.4 °F /  3 °C 30.1in /  1017.8hPa OSO 3mph /  4.8km/h 5mph /  8km/h 60% 0in /  0.0mm
23:44 50.7 °F /  10.4 °C 37.6 °F /  3.1 °C 30.1in /  1017.8hPa OSO 2.9mph /  4.7km/h 5mph /  8km/h 60.4% 0in /  0.0mm
23:49 50.5 °F /  10.3 °C 37.8 °F /  3.2 °C 30.1in /  1017.8hPa SSE 2.6mph /  4.2km/h 5.9mph /  9.5km/h 61.5% 0in /  0.0mm
23:54 49.8 °F /  9.9 °C 37.8 °F /  3.2 °C 30.1in /  1017.8hPa SSE 2.4mph /  3.9km/h 6mph /  9.7km/h 62.8% 0in /  0.0mm
23:59 49.5 °F /  9.7 °C 37.8 °F /  3.2 °C 30.1in /  1017.8hPa SSE 3.2mph /  5.1km/h 6mph /  9.7km/h 63.8% 0in /  0.0mm
Murcia-Puente Tocinos, Espa?a
Compliments of Weather Underground - 3.25 mb

La estación de MeteoMurcia.com, publica sus datos en los siguientes proyectos:

Weather Underground PWS IMURCIAP2 Meteoclimatic www.awekas.at

W3Counter
Web Analytics